sensor_id;sensor_type;location;lat;lon;timestamp;temperature;humidity
6696;DHT22;3385;48.928;10.330;2023-02-08T00:01:07;-8.40;99.90
6696;DHT22;3385;48.928;10.330;2023-02-08T00:03:33;-8.30;99.90
6696;DHT22;3385;48.928;10.330;2023-02-08T00:05:59;-8.30;99.90
6696;DHT22;3385;48.928;10.330;2023-02-08T00:08:25;-8.40;99.90
6696;DHT22;3385;48.928;10.330;2023-02-08T00:10:51;-8.50;99.90
6696;DHT22;3385;48.928;10.330;2023-02-08T00:13:17;-8.40;99.90
6696;DHT22;3385;48.928;10.330;2023-02-08T00:18:10;-8.60;99.90
6696;DHT22;3385;48.928;10.330;2023-02-08T00:23:05;-8.80;99.90
6696;DHT22;3385;48.928;10.330;2023-02-08T00:27:57;-8.50;99.90
6696;DHT22;3385;48.928;10.330;2023-02-08T00:40:08;-8.60;99.90
6696;DHT22;3385;48.928;10.330;2023-02-08T00:42:33;-8.40;99.90
6696;DHT22;3385;48.928;10.330;2023-02-08T01:26:25;-8.90;99.90
6696;DHT22;3385;48.928;10.330;2023-02-08T01:28:52;-8.90;99.90
6696;DHT22;3385;48.928;10.330;2023-02-08T01:31:24;-8.90;99.90
6696;DHT22;3385;48.928;10.330;2023-02-08T01:33:50;-8.80;99.90
6696;DHT22;3385;48.928;10.330;2023-02-08T01:38:43;-8.90;99.90
6696;DHT22;3385;48.928;10.330;2023-02-08T01:46:38;-9.00;99.90
6696;DHT22;3385;48.928;10.330;2023-02-08T01:51:58;-8.60;99.90
6696;DHT22;3385;48.928;10.330;2023-02-08T02:06:47;-9.20;99.90
6696;DHT22;3385;48.928;10.330;2023-02-08T02:12:11;-9.30;99.90
6696;DHT22;3385;48.928;10.330;2023-02-08T02:14:38;-9.50;99.90
6696;DHT22;3385;48.928;10.330;2023-02-08T02:17:04;-9.40;99.90
6696;DHT22;3385;48.928;10.330;2023-02-08T02:19:33;-8.30;99.90
6696;DHT22;3385;48.928;10.330;2023-02-08T02:50:23;-9.80;99.90
6696;DHT22;3385;48.928;10.330;2023-02-08T02:53:02;-9.80;99.90
6696;DHT22;3385;48.928;10.330;2023-02-08T02:55:32;-9.90;99.90
6696;DHT22;3385;48.928;10.330;2023-02-08T02:58:01;-9.80;99.90
6696;DHT22;3385;48.928;10.330;2023-02-08T03:02:55;-9.80;99.90
6696;DHT22;3385;48.928;10.330;2023-02-08T03:05:23;-9.70;99.90
6696;DHT22;3385;48.928;10.330;2023-02-08T03:16:01;-9.60;99.90
6696;DHT22;3385;48.928;10.330;2023-02-08T03:24:11;-9.40;99.90
6696;DHT22;3385;48.928;10.330;2023-02-08T03:31:57;-8.40;99.90
6696;DHT22;3385;48.928;10.330;2023-02-08T03:34:53;-9.70;99.90
6696;DHT22;3385;48.928;10.330;2023-02-08T03:37:27;-9.80;99.90
6696;DHT22;3385;48.928;10.330;2023-02-08T03:40:08;-9.80;99.90
6696;DHT22;3385;48.928;10.330;2023-02-08T03:42:36;-9.80;99.90
6696;DHT22;3385;48.928;10.330;2023-02-08T03:45:25;-9.50;99.90
6696;DHT22;3385;48.928;10.330;2023-02-08T03:47:56;-8.00;99.90
6696;DHT22;3385;48.928;10.330;2023-02-08T03:50:24;-8.90;99.90
6696;DHT22;3385;48.928;10.330;2023-02-08T03:52:51;-8.50;99.90
6696;DHT22;3385;48.928;10.330;2023-02-08T03:55:21;-9.20;99.90
6696;DHT22;3385;48.928;10.330;2023-02-08T03:58:14;-9.50;99.90
6696;DHT22;3385;48.928;10.330;2023-02-08T04:00:43;-9.50;99.90
6696;DHT22;3385;48.928;10.330;2023-02-08T04:03:19;-9.50;99.90
6696;DHT22;3385;48.928;10.330;2023-02-08T04:05:48;-7.70;99.90
6696;DHT22;3385;48.928;10.330;2023-02-08T04:08:14;-8.50;99.90
6696;DHT22;3385;48.928;10.330;2023-02-08T04:10:39;-8.10;99.90
6696;DHT22;3385;48.928;10.330;2023-02-08T04:13:05;-7.20;99.90
6696;DHT22;3385;48.928;10.330;2023-02-08T04:15:31;-7.70;99.90
6696;DHT22;3385;48.928;10.330;2023-02-08T04:17:57;-8.50;99.90
6696;DHT22;3385;48.928;10.330;2023-02-08T04:20:22;-8.20;99.90
6696;DHT22;3385;48.928;10.330;2023-02-08T04:22:48;-7.70;99.90
6696;DHT22;3385;48.928;10.330;2023-02-08T04:25:14;-8.80;99.90
6696;DHT22;3385;48.928;10.330;2023-02-08T04:27:40;-8.80;99.90
6696;DHT22;3385;48.928;10.330;2023-02-08T04:30:06;-8.20;99.90
6696;DHT22;3385;48.928;10.330;2023-02-08T04:32:32;-8.80;99.90
6696;DHT22;3385;48.928;10.330;2023-02-08T04:34:58;-8.80;99.90
6696;DHT22;3385;48.928;10.330;2023-02-08T04:37:24;-8.50;99.90
6696;DHT22;3385;48.928;10.330;2023-02-08T04:39:50;-7.60;99.90
6696;DHT22;3385;48.928;10.330;2023-02-08T04:42:15;-7.70;99.90
6696;DHT22;3385;48.928;10.330;2023-02-08T04:44:41;-8.80;99.90
6696;DHT22;3385;48.928;10.330;2023-02-08T04:47:07;-8.80;99.90
6696;DHT22;3385;48.928;10.330;2023-02-08T04:49:33;-9.10;99.90
6696;DHT22;3385;48.928;10.330;2023-02-08T04:51:59;-9.00;99.90
6696;DHT22;3385;48.928;10.330;2023-02-08T04:54:25;-9.10;99.90
6696;DHT22;3385;48.928;10.330;2023-02-08T04:56:50;-9.20;99.90
6696;DHT22;3385;48.928;10.330;2023-02-08T04:59:16;-8.10;99.90
6696;DHT22;3385;48.928;10.330;2023-02-08T05:01:43;-8.30;99.90
6696;DHT22;3385;48.928;10.330;2023-02-08T05:04:09;-9.00;99.90
6696;DHT22;3385;48.928;10.330;2023-02-08T05:06:35;-7.50;99.90
6696;DHT22;3385;48.928;10.330;2023-02-08T05:09:00;-7.70;99.90
6696;DHT22;3385;48.928;10.330;2023-02-08T05:11:26;-7.90;99.90
6696;DHT22;3385;48.928;10.330;2023-02-08T05:13:52;-8.80;99.90
6696;DHT22;3385;48.928;10.330;2023-02-08T05:16:18;-8.00;99.90
6696;DHT22;3385;48.928;10.330;2023-02-08T05:18:44;-7.20;99.90
6696;DHT22;3385;48.928;10.330;2023-02-08T05:21:10;-7.90;99.90
6696;DHT22;3385;48.928;10.330;2023-02-08T05:23:36;-8.70;99.90
6696;DHT22;3385;48.928;10.330;2023-02-08T05:26:07;-8.70;99.90
6696;DHT22;3385;48.928;10.330;2023-02-08T05:28:33;-7.40;99.90
6696;DHT22;3385;48.928;10.330;2023-02-08T05:30:59;-7.70;99.90
6696;DHT22;3385;48.928;10.330;2023-02-08T05:33:24;-7.80;99.90
6696;DHT22;3385;48.928;10.330;2023-02-08T05:35:50;-8.00;99.90
6696;DHT22;3385;48.928;10.330;2023-02-08T05:38:16;-8.00;99.90
6696;DHT22;3385;48.928;10.330;2023-02-08T05:40:41;-8.10;99.90
6696;DHT22;3385;48.928;10.330;2023-02-08T05:43:07;-7.60;99.90
6696;DHT22;3385;48.928;10.330;2023-02-08T05:45:33;-7.70;99.90
6696;DHT22;3385;48.928;10.330;2023-02-08T05:47:58;-7.80;99.90
6696;DHT22;3385;48.928;10.330;2023-02-08T05:50:24;-7.50;99.90
6696;DHT22;3385;48.928;10.330;2023-02-08T05:52:50;-8.00;99.90
6696;DHT22;3385;48.928;10.330;2023-02-08T05:55:16;-8.60;99.90
6696;DHT22;3385;48.928;10.330;2023-02-08T05:57:41;-7.60;99.90
6696;DHT22;3385;48.928;10.330;2023-02-08T06:00:08;-7.30;99.90
6696;DHT22;3385;48.928;10.330;2023-02-08T06:02:34;-8.50;99.90
6696;DHT22;3385;48.928;10.330;2023-02-08T06:05:00;-7.60;99.90
6696;DHT22;3385;48.928;10.330;2023-02-08T06:07:25;-7.50;99.90
6696;DHT22;3385;48.928;10.330;2023-02-08T06:09:51;-7.40;99.90
6696;DHT22;3385;48.928;10.330;2023-02-08T06:12:17;-7.60;99.90
6696;DHT22;3385;48.928;10.330;2023-02-08T06:14:43;-7.80;99.90
6696;DHT22;3385;48.928;10.330;2023-02-08T06:17:09;-7.70;99.90
6696;DHT22;3385;48.928;10.330;2023-02-08T06:19:35;-8.70;99.90
6696;DHT22;3385;48.928;10.330;2023-02-08T06:22:00;-8.00;99.90
6696;DHT22;3385;48.928;10.330;2023-02-08T06:24:26;-8.50;99.90
6696;DHT22;3385;48.928;10.330;2023-02-08T06:26:52;-8.10;99.90
6696;DHT22;3385;48.928;10.330;2023-02-08T06:29:17;-8.70;99.90
6696;DHT22;3385;48.928;10.330;2023-02-08T06:31:43;-7.60;99.90
6696;DHT22;3385;48.928;10.330;2023-02-08T06:34:09;-8.80;99.90
6696;DHT22;3385;48.928;10.330;2023-02-08T06:36:34;-7.70;99.90
6696;DHT22;3385;48.928;10.330;2023-02-08T06:39:00;-8.50;99.90
6696;DHT22;3385;48.928;10.330;2023-02-08T06:41:26;-7.30;99.90
6696;DHT22;3385;48.928;10.330;2023-02-08T06:43:51;-7.90;99.90
6696;DHT22;3385;48.928;10.330;2023-02-08T06:46:17;-7.40;99.90
6696;DHT22;3385;48.928;10.330;2023-02-08T06:48:43;-7.60;99.90
6696;DHT22;3385;48.928;10.330;2023-02-08T06:51:09;-8.50;99.90
6696;DHT22;3385;48.928;10.330;2023-02-08T06:53:34;-8.50;99.90
6696;DHT22;3385;48.928;10.330;2023-02-08T06:56:00;-8.10;99.90
6696;DHT22;3385;48.928;10.330;2023-02-08T06:58:26;-8.70;99.90
6696;DHT22;3385;48.928;10.330;2023-02-08T07:00:52;-7.50;99.90
6696;DHT22;3385;48.928;10.330;2023-02-08T07:03:17;-7.20;99.90
6696;DHT22;3385;48.928;10.330;2023-02-08T07:05:43;-7.20;99.90
6696;DHT22;3385;48.928;10.330;2023-02-08T07:08:09;-8.00;99.90
6696;DHT22;3385;48.928;10.330;2023-02-08T07:10:37;-7.40;99.90
6696;DHT22;3385;48.928;10.330;2023-02-08T07:13:03;-7.20;99.90
6696;DHT22;3385;48.928;10.330;2023-02-08T07:15:29;-8.30;99.90
6696;DHT22;3385;48.928;10.330;2023-02-08T07:17:56;-6.70;99.90
6696;DHT22;3385;48.928;10.330;2023-02-08T07:20:22;-7.40;99.90
6696;DHT22;3385;48.928;10.330;2023-02-08T07:22:47;-6.90;99.90
6696;DHT22;3385;48.928;10.330;2023-02-08T07:25:13;-8.20;99.90
6696;DHT22;3385;48.928;10.330;2023-02-08T07:27:39;-8.20;99.90
6696;DHT22;3385;48.928;10.330;2023-02-08T07:30:05;-7.70;99.90
6696;DHT22;3385;48.928;10.330;2023-02-08T07:32:32;-8.00;99.90
6696;DHT22;3385;48.928;10.330;2023-02-08T07:34:58;-7.40;99.90
6696;DHT22;3385;48.928;10.330;2023-02-08T07:37:25;-6.90;99.90
6696;DHT22;3385;48.928;10.330;2023-02-08T07:39:51;-7.80;99.90
6696;DHT22;3385;48.928;10.330;2023-02-08T07:42:17;-7.70;99.90
6696;DHT22;3385;48.928;10.330;2023-02-08T07:44:43;-7.60;99.90
6696;DHT22;3385;48.928;10.330;2023-02-08T07:47:10;-7.50;99.90
6696;DHT22;3385;48.928;10.330;2023-02-08T07:49:36;-7.50;99.90
6696;DHT22;3385;48.928;10.330;2023-02-08T07:52:02;-7.50;99.90
6696;DHT22;3385;48.928;10.330;2023-02-08T07:54:28;-7.40;99.90
6696;DHT22;3385;48.928;10.330;2023-02-08T07:56:55;-6.40;99.90
6696;DHT22;3385;48.928;10.330;2023-02-08T07:59:20;-6.80;99.90
6696;DHT22;3385;48.928;10.330;2023-02-08T08:01:46;-6.50;99.90
6696;DHT22;3385;48.928;10.330;2023-02-08T08:04:12;-6.40;99.90
6696;DHT22;3385;48.928;10.330;2023-02-08T08:06:37;-6.30;99.90
6696;DHT22;3385;48.928;10.330;2023-02-08T08:09:03;-6.40;99.90
6696;DHT22;3385;48.928;10.330;2023-02-08T08:11:30;-6.60;99.90
6696;DHT22;3385;48.928;10.330;2023-02-08T08:13:56;-6.60;99.90
6696;DHT22;3385;48.928;10.330;2023-02-08T08:16:21;-6.40;99.90
6696;DHT22;3385;48.928;10.330;2023-02-08T08:18:47;-6.40;99.90
6696;DHT22;3385;48.928;10.330;2023-02-08T08:21:13;-6.30;99.90
6696;DHT22;3385;48.928;10.330;2023-02-08T08:23:41;-3.40;99.90
6696;DHT22;3385;48.928;10.330;2023-02-08T08:26:12;-6.00;99.90
6696;DHT22;3385;48.928;10.330;2023-02-08T08:28:39;-6.20;99.90
6696;DHT22;3385;48.928;10.330;2023-02-08T08:31:23;-6.10;99.90
6696;DHT22;3385;48.928;10.330;2023-02-08T08:33:49;-6.00;99.90
6696;DHT22;3385;48.928;10.330;2023-02-08T08:36:15;-6.00;99.90
6696;DHT22;3385;48.928;10.330;2023-02-08T08:38:41;-5.60;99.90
6696;DHT22;3385;48.928;10.330;2023-02-08T08:41:12;-5.70;99.90
6696;DHT22;3385;48.928;10.330;2023-02-08T08:43:39;-5.70;99.90
6696;DHT22;3385;48.928;10.330;2023-02-08T08:46:06;-5.40;99.90
6696;DHT22;3385;48.928;10.330;2023-02-08T08:48:33;-5.30;99.90
6696;DHT22;3385;48.928;10.330;2023-02-08T08:50:59;-4.70;99.90
6696;DHT22;3385;48.928;10.330;2023-02-08T08:53:25;-4.80;99.90
6696;DHT22;3385;48.928;10.330;2023-02-08T08:55:51;-4.60;99.90
6696;DHT22;3385;48.928;10.330;2023-02-08T08:58:17;-4.60;99.90
6696;DHT22;3385;48.928;10.330;2023-02-08T09:00:44;-4.60;99.90
6696;DHT22;3385;48.928;10.330;2023-02-08T09:03:10;-4.50;99.90
6696;DHT22;3385;48.928;10.330;2023-02-08T09:05:35;-4.40;99.90
6696;DHT22;3385;48.928;10.330;2023-02-08T09:08:01;-4.40;99.90
6696;DHT22;3385;48.928;10.330;2023-02-08T09:10:28;-4.40;99.90
6696;DHT22;3385;48.928;10.330;2023-02-08T09:12:55;-4.30;99.90
6696;DHT22;3385;48.928;10.330;2023-02-08T09:15:21;-3.80;99.90
6696;DHT22;3385;48.928;10.330;2023-02-08T09:17:47;-3.70;99.90
6696;DHT22;3385;48.928;10.330;2023-02-08T09:20:12;-3.80;99.90
6696;DHT22;3385;48.928;10.330;2023-02-08T09:22:38;-3.70;99.90
6696;DHT22;3385;48.928;10.330;2023-02-08T09:25:04;-3.50;99.90
6696;DHT22;3385;48.928;10.330;2023-02-08T09:27:30;-3.30;99.90
6696;DHT22;3385;48.928;10.330;2023-02-08T09:29:56;-3.50;99.90
6696;DHT22;3385;48.928;10.330;2023-02-08T09:32:21;-3.40;99.90
6696;DHT22;3385;48.928;10.330;2023-02-08T09:34:47;-3.40;99.90
6696;DHT22;3385;48.928;10.330;2023-02-08T09:37:13;-3.70;99.90
6696;DHT22;3385;48.928;10.330;2023-02-08T09:39:41;-3.70;99.90
6696;DHT22;3385;48.928;10.330;2023-02-08T09:47:18;-3.10;99.90
6696;DHT22;3385;48.928;10.330;2023-02-08T09:52:26;-2.80;99.90
6696;DHT22;3385;48.928;10.330;2023-02-08T09:54:58;-2.60;99.90
6696;DHT22;3385;48.928;10.330;2023-02-08T09:57:29;-2.20;99.90
6696;DHT22;3385;48.928;10.330;2023-02-08T10:00:00;-1.60;99.90
6696;DHT22;3385;48.928;10.330;2023-02-08T10:02:31;-1.60;99.90
6696;DHT22;3385;48.928;10.330;2023-02-08T10:07:31;0.30;99.90
6696;DHT22;3385;48.928;10.330;2023-02-08T10:10:03;0.30;99.90
6696;DHT22;3385;48.928;10.330;2023-02-08T10:18:35;1.30;99.90
6696;DHT22;3385;48.928;10.330;2023-02-08T10:26:46;2.30;99.90
6696;DHT22;3385;48.928;10.330;2023-02-08T10:34:51;2.60;99.90
6696;DHT22;3385;48.928;10.330;2023-02-08T10:37:35;2.70;99.90
6696;DHT22;3385;48.928;10.330;2023-02-08T10:42:48;3.20;99.90
6696;DHT22;3385;48.928;10.330;2023-02-08T10:45:53;3.40;99.90
6696;DHT22;3385;48.928;10.330;2023-02-08T10:48:33;2.70;99.90
6696;DHT22;3385;48.928;10.330;2023-02-08T10:51:00;3.20;99.90
6696;DHT22;3385;48.928;10.330;2023-02-08T10:53:25;3.00;99.90
6696;DHT22;3385;48.928;10.330;2023-02-08T10:55:51;3.00;99.90
6696;DHT22;3385;48.928;10.330;2023-02-08T10:58:21;3.20;99.90
6696;DHT22;3385;48.928;10.330;2023-02-08T11:00:48;3.40;99.90
6696;DHT22;3385;48.928;10.330;2023-02-08T11:03:27;4.00;99.90
6696;DHT22;3385;48.928;10.330;2023-02-08T11:05:54;3.80;99.90
6696;DHT22;3385;48.928;10.330;2023-02-08T11:08:25;3.90;99.90
6696;DHT22;3385;48.928;10.330;2023-02-08T11:11:04;4.00;99.90
6696;DHT22;3385;48.928;10.330;2023-02-08T11:13:39;4.20;99.90
6696;DHT22;3385;48.928;10.330;2023-02-08T11:16:06;4.40;99.90
6696;DHT22;3385;48.928;10.330;2023-02-08T11:18:40;4.70;99.90
6696;DHT22;3385;48.928;10.330;2023-02-08T11:23:50;5.00;99.90
6696;DHT22;3385;48.928;10.330;2023-02-08T11:29:21;5.20;99.90
6696;DHT22;3385;48.928;10.330;2023-02-08T11:34:26;5.60;99.90
6696;DHT22;3385;48.928;10.330;2023-02-08T11:36:52;6.10;99.90
6696;DHT22;3385;48.928;10.330;2023-02-08T11:39:35;5.90;99.90
6696;DHT22;3385;48.928;10.330;2023-02-08T11:42:03;6.00;99.90
6696;DHT22;3385;48.928;10.330;2023-02-08T11:44:30;6.10;99.90
6696;DHT22;3385;48.928;10.330;2023-02-08T11:46:59;6.10;99.90
6696;DHT22;3385;48.928;10.330;2023-02-08T11:49:35;6.10;99.90
6696;DHT22;3385;48.928;10.330;2023-02-08T11:52:04;6.40;99.90
6696;DHT22;3385;48.928;10.330;2023-02-08T11:57:08;6.50;99.90
6696;DHT22;3385;48.928;10.330;2023-02-08T11:59:36;6.80;99.90
6696;DHT22;3385;48.928;10.330;2023-02-08T12:04:49;6.80;99.90
6696;DHT22;3385;48.928;10.330;2023-02-08T12:20:40;7.70;99.90
6696;DHT22;3385;48.928;10.330;2023-02-08T12:29:21;8.00;99.90
6696;DHT22;3385;48.928;10.330;2023-02-08T12:31:59;7.90;99.90
6696;DHT22;3385;48.928;10.330;2023-02-08T12:34:51;7.90;99.90
6696;DHT22;3385;48.928;10.330;2023-02-08T12:53:37;6.00;99.90
6696;DHT22;3385;48.928;10.330;2023-02-08T12:56:18;5.80;99.90
6696;DHT22;3385;48.928;10.330;2023-02-08T12:58:47;5.70;99.90
6696;DHT22;3385;48.928;10.330;2023-02-08T13:01:22;5.70;99.90
6696;DHT22;3385;48.928;10.330;2023-02-08T13:04:32;5.50;99.90
6696;DHT22;3385;48.928;10.330;2023-02-08T13:07:00;5.50;99.90
6696;DHT22;3385;48.928;10.330;2023-02-08T13:09:40;5.20;99.90
6696;DHT22;3385;48.928;10.330;2023-02-08T13:12:20;6.00;99.90
6696;DHT22;3385;48.928;10.330;2023-02-08T13:17:46;6.70;99.90
6696;DHT22;3385;48.928;10.330;2023-02-08T13:20:27;7.70;99.90
6696;DHT22;3385;48.928;10.330;2023-02-08T13:23:02;7.10;99.90
6696;DHT22;3385;48.928;10.330;2023-02-08T13:25:35;7.00;99.90
6696;DHT22;3385;48.928;10.330;2023-02-08T13:28:04;7.20;99.90
6696;DHT22;3385;48.928;10.330;2023-02-08T13:30:33;7.70;99.90
6696;DHT22;3385;48.928;10.330;2023-02-08T13:33:07;8.10;99.90
6696;DHT22;3385;48.928;10.330;2023-02-08T13:35:38;8.00;99.90
6696;DHT22;3385;48.928;10.330;2023-02-08T13:38:42;8.20;99.90
6696;DHT22;3385;48.928;10.330;2023-02-08T13:41:14;8.40;99.90
6696;DHT22;3385;48.928;10.330;2023-02-08T13:46:43;8.70;99.90
6696;DHT22;3385;48.928;10.330;2023-02-08T13:52:03;8.70;99.90
6696;DHT22;3385;48.928;10.330;2023-02-08T13:54:29;8.40;99.90
6696;DHT22;3385;48.928;10.330;2023-02-08T13:56:55;8.40;99.90
6696;DHT22;3385;48.928;10.330;2023-02-08T13:59:37;7.80;99.90
6696;DHT22;3385;48.928;10.330;2023-02-08T14:07:42;8.30;99.90
6696;DHT22;3385;48.928;10.330;2023-02-08T14:10:40;7.70;99.90
6696;DHT22;3385;48.928;10.330;2023-02-08T14:13:26;8.10;99.90
6696;DHT22;3385;48.928;10.330;2023-02-08T14:16:21;8.10;99.90
6696;DHT22;3385;48.928;10.330;2023-02-08T14:21:42;8.40;99.90
6696;DHT22;3385;48.928;10.330;2023-02-08T14:24:31;8.60;99.90
6696;DHT22;3385;48.928;10.330;2023-02-08T14:27:07;8.80;99.90
6696;DHT22;3385;48.928;10.330;2023-02-08T14:29:33;8.70;99.90
6696;DHT22;3385;48.928;10.330;2023-02-08T14:32:00;8.70;99.90
6696;DHT22;3385;48.928;10.330;2023-02-08T14:34:34;8.80;99.90
6696;DHT22;3385;48.928;10.330;2023-02-08T14:39:43;9.00;99.90
6696;DHT22;3385;48.928;10.330;2023-02-08T14:42:09;8.60;99.90
6696;DHT22;3385;48.928;10.330;2023-02-08T14:47:09;8.50;99.90
6696;DHT22;3385;48.928;10.330;2023-02-08T14:49:42;8.60;99.90
6696;DHT22;3385;48.928;10.330;2023-02-08T14:52:21;8.40;99.90
6696;DHT22;3385;48.928;10.330;2023-02-08T14:55:09;8.50;99.90
6696;DHT22;3385;48.928;10.330;2023-02-08T14:57:39;7.80;99.90
6696;DHT22;3385;48.928;10.330;2023-02-08T15:00:28;7.20;99.90
6696;DHT22;3385;48.928;10.330;2023-02-08T15:02:56;7.00;99.90
6696;DHT22;3385;48.928;10.330;2023-02-08T15:05:30;6.80;99.90
6696;DHT22;3385;48.928;10.330;2023-02-08T15:08:00;6.70;99.90
6696;DHT22;3385;48.928;10.330;2023-02-08T15:10:28;5.70;99.90
6696;DHT22;3385;48.928;10.330;2023-02-08T15:12:59;5.00;99.90
6696;DHT22;3385;48.928;10.330;2023-02-08T15:15:34;3.30;99.90
6696;DHT22;3385;48.928;10.330;2023-02-08T15:18:02;2.10;99.90
6696;DHT22;3385;48.928;10.330;2023-02-08T15:20:31;0.80;99.90
6696;DHT22;3385;48.928;10.330;2023-02-08T15:23:19;0.20;99.90
6696;DHT22;3385;48.928;10.330;2023-02-08T15:26:01;0.40;99.90
6696;DHT22;3385;48.928;10.330;2023-02-08T15:28:29;-0.70;99.90
6696;DHT22;3385;48.928;10.330;2023-02-08T15:31:07;-0.50;99.90
6696;DHT22;3385;48.928;10.330;2023-02-08T15:33:37;-0.70;99.90
6696;DHT22;3385;48.928;10.330;2023-02-08T15:36:29;-0.90;99.90
6696;DHT22;3385;48.928;10.330;2023-02-08T15:38:56;-1.30;99.90
6696;DHT22;3385;48.928;10.330;2023-02-08T15:41:31;-1.40;99.90
6696;DHT22;3385;48.928;10.330;2023-02-08T15:46:43;-1.20;99.90
6696;DHT22;3385;48.928;10.330;2023-02-08T15:49:36;-1.30;99.90
6696;DHT22;3385;48.928;10.330;2023-02-08T15:52:05;-1.70;99.90
6696;DHT22;3385;48.928;10.330;2023-02-08T15:54:31;-1.80;99.90
6696;DHT22;3385;48.928;10.330;2023-02-08T15:57:06;-1.80;99.90
6696;DHT22;3385;48.928;10.330;2023-02-08T15:59:36;-1.80;99.90
6696;DHT22;3385;48.928;10.330;2023-02-08T16:04:44;-2.10;99.90
6696;DHT22;3385;48.928;10.330;2023-02-08T16:07:26;-1.70;99.90
6696;DHT22;3385;48.928;10.330;2023-02-08T16:09:53;-2.20;99.90
6696;DHT22;3385;48.928;10.330;2023-02-08T16:12:22;-2.40;99.90
6696;DHT22;3385;48.928;10.330;2023-02-08T16:14:49;-2.50;99.90
6696;DHT22;3385;48.928;10.330;2023-02-08T16:19:55;-2.60;99.90
6696;DHT22;3385;48.928;10.330;2023-02-08T16:24:47;-2.80;99.90
6696;DHT22;3385;48.928;10.330;2023-02-08T16:29:45;-3.00;99.90
6696;DHT22;3385;48.928;10.330;2023-02-08T16:32:35;-3.20;99.90
6696;DHT22;3385;48.928;10.330;2023-02-08T16:35:14;-3.30;99.90
6696;DHT22;3385;48.928;10.330;2023-02-08T16:37:44;-3.60;99.90
6696;DHT22;3385;48.928;10.330;2023-02-08T16:43:18;-3.60;99.90
6696;DHT22;3385;48.928;10.330;2023-02-08T16:45:44;-3.80;99.90
6696;DHT22;3385;48.928;10.330;2023-02-08T16:48:32;-3.70;99.90
6696;DHT22;3385;48.928;10.330;2023-02-08T16:51:05;-3.60;99.90
6696;DHT22;3385;48.928;10.330;2023-02-08T16:53:32;-3.60;99.90
6696;DHT22;3385;48.928;10.330;2023-02-08T16:55:59;-3.40;99.90
6696;DHT22;3385;48.928;10.330;2023-02-08T16:58:24;-3.80;99.90
6696;DHT22;3385;48.928;10.330;2023-02-08T17:00:51;-3.70;99.90
6696;DHT22;3385;48.928;10.330;2023-02-08T17:03:17;-3.90;99.90
6696;DHT22;3385;48.928;10.330;2023-02-08T17:05:43;-3.80;99.90
6696;DHT22;3385;48.928;10.330;2023-02-08T17:08:14;-4.10;99.90
6696;DHT22;3385;48.928;10.330;2023-02-08T17:10:42;-4.20;99.90
6696;DHT22;3385;48.928;10.330;2023-02-08T17:13:09;-4.40;99.90
6696;DHT22;3385;48.928;10.330;2023-02-08T17:15:35;-4.30;99.90
6696;DHT22;3385;48.928;10.330;2023-02-08T17:18:01;-4.40;99.90
6696;DHT22;3385;48.928;10.330;2023-02-08T17:20:33;-4.60;99.90
6696;DHT22;3385;48.928;10.330;2023-02-08T17:23:01;-4.40;99.90
6696;DHT22;3385;48.928;10.330;2023-02-08T17:25:28;-4.50;99.90
6696;DHT22;3385;48.928;10.330;2023-02-08T17:27:57;-4.90;99.90
6696;DHT22;3385;48.928;10.330;2023-02-08T17:30:29;-4.70;99.90
6696;DHT22;3385;48.928;10.330;2023-02-08T17:32:55;-4.40;99.90
6696;DHT22;3385;48.928;10.330;2023-02-08T17:35:26;-4.70;99.90
6696;DHT22;3385;48.928;10.330;2023-02-08T17:37:54;-4.70;99.90
6696;DHT22;3385;48.928;10.330;2023-02-08T17:40:22;-4.60;99.90
6696;DHT22;3385;48.928;10.330;2023-02-08T17:42:50;-4.70;99.90
6696;DHT22;3385;48.928;10.330;2023-02-08T17:45:17;-4.20;99.90
6696;DHT22;3385;48.928;10.330;2023-02-08T17:47:42;-4.60;99.90
6696;DHT22;3385;48.928;10.330;2023-02-08T17:50:10;-4.60;99.90
6696;DHT22;3385;48.928;10.330;2023-02-08T17:52:37;-4.70;99.90
6696;DHT22;3385;48.928;10.330;2023-02-08T17:55:04;-4.80;99.90
6696;DHT22;3385;48.928;10.330;2023-02-08T17:57:32;-4.80;99.90
6696;DHT22;3385;48.928;10.330;2023-02-08T17:59:59;-5.10;99.90
6696;DHT22;3385;48.928;10.330;2023-02-08T18:02:25;-5.20;99.90
6696;DHT22;3385;48.928;10.330;2023-02-08T18:04:50;-5.40;99.90
6696;DHT22;3385;48.928;10.330;2023-02-08T18:07:16;-5.30;99.90
6696;DHT22;3385;48.928;10.330;2023-02-08T18:09:42;-5.30;99.90
6696;DHT22;3385;48.928;10.330;2023-02-08T18:12:08;-5.40;99.90
6696;DHT22;3385;48.928;10.330;2023-02-08T18:14:36;-5.40;99.90
6696;DHT22;3385;48.928;10.330;2023-02-08T18:17:03;-5.30;99.90
6696;DHT22;3385;48.928;10.330;2023-02-08T18:19:29;-5.50;99.90
6696;DHT22;3385;48.928;10.330;2023-02-08T18:21:55;-5.50;99.90
6696;DHT22;3385;48.928;10.330;2023-02-08T18:24:21;-5.60;99.90
6696;DHT22;3385;48.928;10.330;2023-02-08T18:26:47;-5.10;99.90
6696;DHT22;3385;48.928;10.330;2023-02-08T18:29:13;-5.80;99.90
6696;DHT22;3385;48.928;10.330;2023-02-08T18:31:39;-5.90;99.90
6696;DHT22;3385;48.928;10.330;2023-02-08T18:34:05;-5.80;99.90
6696;DHT22;3385;48.928;10.330;2023-02-08T18:36:31;-5.80;99.90
6696;DHT22;3385;48.928;10.330;2023-02-08T18:38:56;-5.80;99.90
6696;DHT22;3385;48.928;10.330;2023-02-08T18:41:25;-5.50;99.90
6696;DHT22;3385;48.928;10.330;2023-02-08T18:43:52;-5.60;99.90
6696;DHT22;3385;48.928;10.330;2023-02-08T18:46:21;-5.60;99.90
6696;DHT22;3385;48.928;10.330;2023-02-08T18:48:48;-5.80;99.90
6696;DHT22;3385;48.928;10.330;2023-02-08T18:51:18;-5.90;99.90
6696;DHT22;3385;48.928;10.330;2023-02-08T18:53:49;-6.00;99.90
6696;DHT22;3385;48.928;10.330;2023-02-08T18:56:16;-5.50;99.90
6696;DHT22;3385;48.928;10.330;2023-02-08T18:58:42;-5.90;99.90
6696;DHT22;3385;48.928;10.330;2023-02-08T19:01:14;-6.10;99.90
6696;DHT22;3385;48.928;10.330;2023-02-08T19:03:40;-6.30;99.90
6696;DHT22;3385;48.928;10.330;2023-02-08T19:06:14;-6.20;99.90
6696;DHT22;3385;48.928;10.330;2023-02-08T19:08:42;-6.50;99.90
6696;DHT22;3385;48.928;10.330;2023-02-08T19:13:47;-6.10;99.90
6696;DHT22;3385;48.928;10.330;2023-02-08T19:16:13;-6.50;99.90
6696;DHT22;3385;48.928;10.330;2023-02-08T19:18:44;-6.40;99.90
6696;DHT22;3385;48.928;10.330;2023-02-08T19:21:15;-6.30;99.90
6696;DHT22;3385;48.928;10.330;2023-02-08T19:23:42;-6.20;99.90
6696;DHT22;3385;48.928;10.330;2023-02-08T19:28:41;-6.50;99.90
6696;DHT22;3385;48.928;10.330;2023-02-08T19:33:38;-6.60;99.90
6696;DHT22;3385;48.928;10.330;2023-02-08T19:36:09;-6.40;99.90
6696;DHT22;3385;48.928;10.330;2023-02-08T19:38:36;-6.50;99.90
6696;DHT22;3385;48.928;10.330;2023-02-08T19:41:02;-6.40;99.90
6696;DHT22;3385;48.928;10.330;2023-02-08T19:43:28;-6.50;99.90
6696;DHT22;3385;48.928;10.330;2023-02-08T19:45:55;-6.70;99.90
6696;DHT22;3385;48.928;10.330;2023-02-08T19:48:21;-6.70;99.90
6696;DHT22;3385;48.928;10.330;2023-02-08T19:50:59;-6.40;99.90
6696;DHT22;3385;48.928;10.330;2023-02-08T19:53:26;-6.70;99.90
6696;DHT22;3385;48.928;10.330;2023-02-08T19:56:04;-6.60;99.90
6696;DHT22;3385;48.928;10.330;2023-02-08T19:58:30;-6.50;99.90
6696;DHT22;3385;48.928;10.330;2023-02-08T20:00:56;-3.30;99.90
6696;DHT22;3385;48.928;10.330;2023-02-08T20:03:23;-6.60;99.90
6696;DHT22;3385;48.928;10.330;2023-02-08T20:05:50;-6.60;99.90
6696;DHT22;3385;48.928;10.330;2023-02-08T20:08:16;-6.80;99.90
6696;DHT22;3385;48.928;10.330;2023-02-08T20:10:44;-6.50;99.90
6696;DHT22;3385;48.928;10.330;2023-02-08T20:13:11;-6.70;99.90
6696;DHT22;3385;48.928;10.330;2023-02-08T20:15:39;-6.40;99.90
6696;DHT22;3385;48.928;10.330;2023-02-08T20:18:06;-6.70;99.90
6696;DHT22;3385;48.928;10.330;2023-02-08T20:20:32;-6.80;99.90
6696;DHT22;3385;48.928;10.330;2023-02-08T20:22:58;-6.90;99.90